createdAt,value
2023-04-05T00:03:01.432Z,101300.88
2023-04-05T00:06:05.627Z,101301.84
2023-04-05T00:09:08.042Z,101305.53
2023-04-05T00:12:10.839Z,101301.50
2023-04-05T00:15:13.284Z,101307.84
2023-04-05T00:18:22.230Z,101288.59
2023-04-05T00:21:25.336Z,101292.56
2023-04-05T00:24:29.566Z,101292.25
2023-04-05T00:27:32.227Z,101280.22
2023-04-05T00:30:34.550Z,101280.84
2023-04-05T00:33:36.976Z,101270.81
2023-04-05T00:36:39.442Z,101279.53
2023-04-05T00:39:42.030Z,101278.69
2023-04-05T00:42:44.368Z,101272.81
2023-04-05T00:45:47.761Z,101263.41
2023-04-05T00:48:50.624Z,101280.38
2023-04-05T00:51:53.681Z,101273.28
2023-04-05T00:54:56.970Z,101275.59
2023-04-05T00:57:59.350Z,101262.56
2023-04-05T01:01:06.618Z,101270.19
2023-04-05T01:04:11.597Z,101279.25
2023-04-05T01:07:42.409Z,101281.44
2023-04-05T01:10:51.752Z,101268.97
2023-04-05T01:14:01.614Z,101265.81
2023-04-05T01:17:03.971Z,101265.03
2023-04-05T01:20:11.944Z,101252.22
2023-04-05T01:23:46.865Z,101260.94
2023-04-05T01:27:03.320Z,101261.25
2023-04-05T01:30:19.030Z,101255.72
2023-04-05T01:33:33.307Z,101261.50
2023-04-05T01:36:42.065Z,101256.31
2023-04-05T01:39:44.413Z,101246.31
2023-04-05T01:42:46.829Z,101249.34
2023-04-05T01:45:49.203Z,101255.84
2023-04-05T01:48:51.837Z,101246.91
2023-04-05T01:51:55.284Z,101254.50
2023-04-05T01:54:57.683Z,101233.13
2023-04-05T01:58:00.062Z,101244.81
2023-04-05T02:01:02.746Z,101255.03
2023-04-05T02:04:05.085Z,101237.53
2023-04-05T02:07:07.436Z,101250.53
2023-04-05T02:10:09.958Z,101243.19
2023-04-05T02:13:14.215Z,101219.50
2023-04-05T02:16:17.449Z,101236.19
2023-04-05T02:19:23.272Z,101239.88
2023-04-05T02:22:25.926Z,101235.81
2023-04-05T02:25:28.691Z,101208.81
2023-04-05T02:28:31.263Z,101232.50
2023-04-05T02:31:33.671Z,101233.00
2023-04-05T02:34:37.144Z,101226.16
2023-04-05T02:37:39.689Z,101229.81
2023-04-05T02:40:43.636Z,101228.13
2023-04-05T02:43:46.588Z,101232.63
2023-04-05T02:46:49.056Z,101222.78
2023-04-05T02:49:52.409Z,101223.47
2023-04-05T02:52:55.156Z,101202.09
2023-04-05T02:56:00.012Z,101227.16
2023-04-05T02:59:04.109Z,101222.81
2023-04-05T03:02:07.190Z,101229.47
2023-04-05T03:05:10.435Z,101223.63
2023-04-05T03:08:19.929Z,101215.09
2023-04-05T03:11:34.138Z,101222.13
2023-04-05T03:14:36.959Z,101205.94
2023-04-05T03:17:39.765Z,101221.81
2023-04-05T03:20:42.149Z,101220.81
2023-04-05T03:23:52.180Z,101208.59
2023-04-05T03:27:06.234Z,101214.94
2023-04-05T03:30:21.259Z,101208.91
2023-04-05T03:33:32.136Z,101225.97
2023-04-05T03:36:41.948Z,101214.94
2023-04-05T03:39:52.017Z,101212.09
2023-04-05T03:42:54.986Z,101216.28
2023-04-05T03:45:57.409Z,101210.09
2023-04-05T03:49:03.985Z,101223.78
2023-04-05T03:52:06.717Z,101213.09
2023-04-05T03:55:09.586Z,101216.28
2023-04-05T03:58:12.818Z,101211.09
2023-04-05T04:01:16.790Z,101209.44
2023-04-05T04:04:19.172Z,101213.94
2023-04-05T04:07:23.585Z,101224.97
2023-04-05T04:10:25.923Z,101223.13
2023-04-05T04:13:31.754Z,101224.81
2023-04-05T04:16:55.915Z,101218.78
2023-04-05T04:20:11.277Z,101223.13
2023-04-05T04:23:39.931Z,101223.13
2023-04-05T04:27:11.642Z,101230.47
2023-04-05T04:30:22.826Z,101221.28
2023-04-05T04:33:43.720Z,101229.63
2023-04-05T04:36:57.824Z,101233.66
2023-04-05T04:40:48.006Z,101231.78
2023-04-05T04:44:08.884Z,101241.63
2023-04-05T04:47:31.966Z,101235.16
2023-04-05T04:50:52.556Z,101240.19
2023-04-05T04:53:55.965Z,101237.78
2023-04-05T04:56:58.408Z,101229.44
2023-04-05T05:00:00.914Z,101242.19
2023-04-05T05:03:03.572Z,101238.81
2023-04-05T05:06:06.775Z,101238.94
2023-04-05T05:09:10.409Z,101229.59
2023-04-05T05:12:22.482Z,101238.09
2023-04-05T05:15:24.967Z,101242.94
2023-04-05T05:18:27.339Z,101238.06
2023-04-05T05:21:29.770Z,101232.75
2023-04-05T05:24:35.821Z,101217.00
2023-04-05T05:27:38.094Z,101243.06
2023-04-05T05:30:40.603Z,101232.66
2023-04-05T05:33:43.234Z,101230.88
2023-04-05T05:36:45.721Z,101236.50
2023-04-05T05:39:48.169Z,101224.94
2023-04-05T05:42:50.617Z,101243.00
2023-04-05T05:45:53.195Z,101246.44
2023-04-05T05:48:55.977Z,101249.00
2023-04-05T05:51:58.425Z,101242.22
2023-04-05T05:55:01.005Z,101235.38
2023-04-05T05:58:03.706Z,101247.84
2023-04-05T06:01:12.416Z,101239.44
2023-04-05T06:04:15.103Z,101241.91
2023-04-05T06:07:17.697Z,101241.03
2023-04-05T06:10:20.402Z,101234.91
2023-04-05T06:13:22.670Z,101241.19
2023-04-05T06:16:25.166Z,101215.72
2023-04-05T06:19:27.872Z,101243.09
2023-04-05T06:22:30.346Z,101235.25
2023-04-05T06:25:33.004Z,101231.06
2023-04-05T06:28:35.437Z,101231.16
2023-04-05T06:31:38.327Z,101231.66
2023-04-05T06:34:41.144Z,101244.88
2023-04-05T06:37:43.514Z,101238.44
2023-04-05T06:40:46.028Z,101233.88
2023-04-05T06:43:48.414Z,101231.72
2023-04-05T06:46:50.934Z,101231.25
2023-04-05T06:49:53.217Z,101238.94
2023-04-05T06:52:55.585Z,101230.31
2023-04-05T06:55:59.863Z,101234.25
2023-04-05T06:59:02.980Z,101240.13
2023-04-05T07:02:05.479Z,101228.09
2023-04-05T07:05:09.027Z,101244.28
2023-04-05T07:08:11.510Z,101244.84
2023-04-05T07:11:13.961Z,101230.56
2023-04-05T07:14:16.474Z,101243.00
2023-04-05T07:17:18.870Z,101239.47
2023-04-05T07:20:21.281Z,101236.13
2023-04-05T07:23:23.549Z,101228.16
2023-04-05T07:26:27.318Z,101228.41
2023-04-05T07:29:29.725Z,101234.22
2023-04-05T07:32:32.177Z,101228.97
2023-04-05T07:35:34.593Z,101225.66
2023-04-05T07:38:37.008Z,101222.63
2023-04-05T07:41:40.205Z,101221.00
2023-04-05T07:44:43.516Z,101219.28
2023-04-05T07:47:46.765Z,101220.06
2023-04-05T07:50:49.409Z,101221.00
2023-04-05T07:53:51.969Z,101224.94
2023-04-05T07:56:55.924Z,101217.88
2023-04-05T07:59:58.362Z,101215.19
2023-04-05T08:03:02.428Z,101219.00
2023-04-05T08:06:19.142Z,101221.91
2023-04-05T08:09:21.544Z,101225.75
2023-04-05T08:12:24.448Z,101227.22
2023-04-05T08:15:27.082Z,101217.31
2023-04-05T08:18:29.633Z,101221.16
2023-04-05T08:21:32.135Z,101226.91
2023-04-05T08:24:34.589Z,101220.34
2023-04-05T08:27:37.033Z,101219.78
2023-04-05T08:30:40.562Z,101226.69
2023-04-05T08:33:43.121Z,101217.06
2023-04-05T08:36:47.088Z,101236.78
2023-04-05T08:39:50.955Z,101211.41
2023-04-05T08:42:58.649Z,101213.84
2023-04-05T08:46:01.815Z,101228.50
2023-04-05T08:49:08.326Z,101222.97
2023-04-05T08:52:11.712Z,101226.53
2023-04-05T08:55:14.417Z,101212.75
2023-04-05T08:58:17.397Z,101221.28
2023-04-05T09:01:20.234Z,101207.06
2023-04-05T09:04:27.583Z,101214.28
2023-04-05T09:07:31.469Z,101224.56
2023-04-05T09:10:33.993Z,101217.09
2023-04-05T09:13:36.580Z,101217.94
2023-04-05T09:16:40.869Z,101223.97
2023-04-05T09:19:43.810Z,101223.53
2023-04-05T09:22:47.036Z,101229.50
2023-04-05T09:25:52.821Z,101218.28
2023-04-05T09:28:55.117Z,101220.81
2023-04-05T09:31:57.444Z,101230.31
2023-04-05T09:35:04.752Z,101225.69
2023-04-05T09:38:10.172Z,101220.03
2023-04-05T09:41:13.557Z,101225.88
2023-04-05T09:44:16.044Z,101218.66
2023-04-05T09:47:20.075Z,101213.19
2023-04-05T09:50:26.502Z,101222.59
2023-04-05T09:53:30.404Z,101233.69
2023-04-05T09:56:54.168Z,101235.03
2023-04-05T09:59:56.910Z,101236.72
2023-04-05T10:02:59.282Z,101240.31
2023-04-05T10:06:02.118Z,101229.00
2023-04-05T10:09:05.391Z,101219.03
2023-04-05T10:12:09.188Z,101232.06
2023-04-05T10:15:14.249Z,101225.16
2023-04-05T10:18:22.702Z,101225.34
2023-04-05T10:21:32.039Z,101224.41
2023-04-05T10:24:50.904Z,101238.13
2023-04-05T10:28:04.530Z,101236.75
2023-04-05T10:31:40.288Z,101230.41
2023-04-05T10:35:07.002Z,101214.34
2023-04-05T10:38:24.473Z,101235.16
2023-04-05T10:41:27.111Z,101235.16
2023-04-05T10:44:33.341Z,101236.34
2023-04-05T10:47:41.842Z,101229.69
2023-04-05T10:50:44.825Z,101218.25
2023-04-05T10:53:48.580Z,101227.53
2023-04-05T10:56:52.703Z,101220.66
2023-04-05T10:59:55.273Z,101214.94
2023-04-05T11:02:57.735Z,101217.25
2023-04-05T11:06:18.328Z,101224.50
2023-04-05T11:09:21.688Z,101223.38
2023-04-05T11:12:59.019Z,101218.38
2023-04-05T11:16:10.498Z,101218.19
2023-04-05T11:19:12.841Z,101214.06
2023-04-05T11:22:26.316Z,101222.63
2023-04-05T11:25:28.813Z,101221.28
2023-04-05T11:28:40.733Z,101222.72
2023-04-05T11:32:02.678Z,101218.31
2023-04-05T11:35:13.100Z,101206.38
2023-04-05T11:38:23.204Z,101216.28
2023-04-05T11:41:26.639Z,101198.16
2023-04-05T11:44:49.118Z,101227.81
2023-04-05T11:47:51.682Z,101213.69
2023-04-05T11:50:54.831Z,101211.72
2023-04-05T11:53:57.219Z,101216.28
2023-04-05T11:57:00.045Z,101210.75
2023-04-05T12:00:02.412Z,101206.41
2023-04-05T12:03:17.922Z,101214.38
2023-04-05T12:06:23.535Z,101205.47
2023-04-05T12:09:26.139Z,101205.69
2023-04-05T12:12:28.960Z,101117.66
2023-04-05T12:15:31.548Z,101197.44
2023-04-05T12:18:38.244Z,101190.66
2023-04-05T12:21:40.644Z,101163.28
2023-04-05T12:24:43.023Z,101197.03
2023-04-05T12:27:45.854Z,101186.75
2023-04-05T12:30:52.351Z,101176.50
2023-04-05T12:34:00.167Z,101193.22
2023-04-05T12:37:03.822Z,101193.50
2023-04-05T12:40:06.722Z,101188.81
2023-04-05T12:43:09.839Z,101180.38
2023-04-05T12:46:13.142Z,101187.91
2023-04-05T12:49:19.409Z,101188.09
2023-04-05T12:52:21.697Z,101198.59
2023-04-05T12:55:24.861Z,101192.75
2023-04-05T12:58:35.056Z,101198.09
2023-04-05T13:01:38.322Z,101191.56
2023-04-05T13:04:40.902Z,101206.66
2023-04-05T13:07:43.153Z,101197.38
2023-04-05T13:10:49.370Z,101183.03
2023-04-05T13:13:51.911Z,101186.59
2023-04-05T13:16:54.256Z,101196.13
2023-04-05T13:19:56.897Z,101198.31
2023-04-05T13:22:59.276Z,101190.75
2023-04-05T13:26:01.643Z,101197.53
2023-04-05T13:29:04.176Z,101202.75
2023-04-05T13:32:06.629Z,101188.91
2023-04-05T13:35:09.836Z,101195.59
2023-04-05T13:38:12.336Z,101199.59
2023-04-05T13:41:16.156Z,101163.81
2023-04-05T13:44:18.701Z,101188.16
2023-04-05T13:47:21.148Z,101197.34
2023-04-05T13:50:23.726Z,101189.72
2023-04-05T13:53:28.348Z,101191.53
2023-04-05T13:56:31.020Z,101196.13
2023-04-05T13:59:33.481Z,101191.63
2023-04-05T14:02:36.318Z,101192.81
2023-04-05T14:05:38.673Z,101194.53
2023-04-05T14:08:41.064Z,101191.09
2023-04-05T14:11:43.500Z,101195.09
2023-04-05T14:14:45.825Z,101192.38
2023-04-05T14:17:48.238Z,101199.44
2023-04-05T14:20:50.702Z,101207.63
2023-04-05T14:23:57.071Z,101208.38
2023-04-05T14:26:59.587Z,101207.22
2023-04-05T14:30:02.116Z,101201.66
2023-04-05T14:33:04.479Z,101199.00
2023-04-05T14:36:07.038Z,101212.38
2023-04-05T14:39:09.457Z,101212.56
2023-04-05T14:42:11.851Z,101210.19
2023-04-05T14:45:14.206Z,101207.72
2023-04-05T14:48:16.656Z,101206.66
2023-04-05T14:51:19.182Z,101218.50
2023-04-05T14:54:21.498Z,101214.50
2023-04-05T14:57:23.843Z,101219.75
2023-04-05T15:00:26.298Z,101227.16
2023-04-05T15:03:30.135Z,101224.06
2023-04-05T15:06:33.285Z,101226.25
2023-04-05T15:09:36.138Z,101225.88
2023-04-05T15:12:38.765Z,101231.22
2023-04-05T15:15:41.411Z,101234.03
2023-04-05T15:18:43.736Z,101233.56
2023-04-05T15:21:46.509Z,101239.91
2023-04-05T15:24:48.820Z,101209.66
2023-04-05T15:27:51.420Z,101238.50
2023-04-05T15:30:53.682Z,101228.03
2023-04-05T15:33:56.786Z,101233.97
2023-04-05T15:36:59.166Z,101230.63
2023-04-05T15:40:03.674Z,101228.94
2023-04-05T15:43:06.344Z,101233.34
2023-04-05T15:46:08.792Z,101229.59
2023-04-05T15:49:14.040Z,101232.81
2023-04-05T15:52:18.263Z,101241.81
2023-04-05T15:55:20.804Z,101192.84
2023-04-05T15:58:23.205Z,101250.25
2023-04-05T16:01:25.615Z,101231.59
2023-04-05T16:04:28.121Z,101236.13
2023-04-05T16:07:30.586Z,101242.72
2023-04-05T16:10:33.179Z,101260.03
2023-04-05T16:13:36.193Z,101250.31
2023-04-05T16:16:50.090Z,101255.19
2023-04-05T16:19:57.036Z,101253.91
2023-04-05T16:22:59.743Z,101236.50
2023-04-05T16:26:02.776Z,101249.63
2023-04-05T16:29:06.387Z,101246.53
2023-04-05T16:32:09.214Z,101251.94
2023-04-05T16:35:11.708Z,101217.56
2023-04-05T16:38:14.003Z,101256.38
2023-04-05T16:41:16.459Z,101262.84
2023-04-05T16:44:19.300Z,101262.22
2023-04-05T16:47:22.325Z,101255.63
2023-04-05T16:50:24.967Z,101264.09
2023-04-05T16:53:27.563Z,101267.00
2023-04-05T16:56:30.145Z,101264.72
2023-04-05T16:59:32.539Z,101228.66
2023-04-05T17:02:35.054Z,101274.28
2023-04-05T17:05:38.489Z,101277.03
2023-04-05T17:08:41.201Z,101269.56
2023-04-05T17:11:43.591Z,101271.88
2023-04-05T17:14:45.919Z,101262.53
2023-04-05T17:17:48.430Z,101271.25
2023-04-05T17:20:51.487Z,101271.25
2023-04-05T17:23:54.072Z,101275.19
2023-04-05T17:26:56.564Z,101275.41
2023-04-05T17:30:02.502Z,101265.47
2023-04-05T17:33:05.200Z,101268.56
2023-04-05T17:36:08.341Z,101283.50
2023-04-05T17:39:10.884Z,101285.16
2023-04-05T17:42:13.241Z,101292.00
2023-04-05T17:45:15.685Z,101283.28
2023-04-05T17:48:19.006Z,101292.44
2023-04-05T17:51:22.205Z,101294.31
2023-04-05T17:54:24.937Z,101299.69
2023-04-05T17:57:27.280Z,101290.97
2023-04-05T18:00:29.616Z,101302.16
2023-04-05T18:03:32.316Z,101301.97
2023-04-05T18:06:34.881Z,101307.78
2023-04-05T18:09:38.577Z,101300.94
2023-04-05T18:12:41.463Z,101311.09
2023-04-05T18:15:43.853Z,101309.63
2023-04-05T18:18:48.043Z,101311.09
2023-04-05T18:21:50.513Z,101312.72
2023-04-05T18:24:53.142Z,101315.88
2023-04-05T18:27:56.236Z,101314.59
2023-04-05T18:30:59.668Z,101284.69
2023-04-05T18:34:04.877Z,101325.97
2023-04-05T18:37:07.494Z,101316.03
2023-04-05T18:40:10.179Z,101312.72
2023-04-05T18:43:12.511Z,101308.56
2023-04-05T18:46:18.778Z,101318.97
2023-04-05T18:49:21.763Z,101330.56
2023-04-05T18:52:26.194Z,101326.41
2023-04-05T18:55:28.579Z,101333.47
2023-04-05T18:58:31.087Z,101333.47
2023-04-05T19:01:33.589Z,101337.00
2023-04-05T19:04:35.974Z,101342.38
2023-04-05T19:07:38.388Z,101337.00
2023-04-05T19:10:40.854Z,101341.97
2023-04-05T19:13:43.126Z,101343.25
2023-04-05T19:16:45.834Z,101345.28
2023-04-05T19:19:48.823Z,101349.22
2023-04-05T19:22:51.154Z,101346.31
2023-04-05T19:25:57.199Z,101349.84
2023-04-05T19:28:59.697Z,101348.19
2023-04-05T19:32:02.440Z,101347.59
2023-04-05T19:35:07.004Z,101334.94
2023-04-05T19:38:13.153Z,101351.09
2023-04-05T19:41:15.686Z,101351.13
2023-04-05T19:44:57.654Z,101352.09
2023-04-05T19:48:02.560Z,101355.03
2023-04-05T19:51:07.265Z,101348.84
2023-04-05T19:54:15.013Z,101350.50
2023-04-05T19:57:19.376Z,101355.03
2023-04-05T20:00:55.302Z,101343.09
2023-04-05T20:03:57.942Z,101361.78
2023-04-05T20:07:01.525Z,101358.88
2023-04-05T20:10:16.058Z,101346.25
2023-04-05T20:13:19.009Z,101353.91
2023-04-05T20:16:27.206Z,101353.41
2023-04-05T20:19:31.057Z,101361.81
2023-04-05T20:22:33.672Z,101355.06
2023-04-05T20:25:42.764Z,101352.09
2023-04-05T20:28:56.030Z,101347.34
2023-04-05T20:31:59.997Z,101348.56
2023-04-05T20:35:02.528Z,101346.44
2023-04-05T20:38:06.364Z,101347.00
2023-04-05T20:41:11.693Z,101350.50
2023-04-05T20:44:14.276Z,101348.72
2023-04-05T20:47:17.264Z,101315.53
2023-04-05T20:50:21.196Z,101334.44
2023-04-05T20:53:25.021Z,101343.59
2023-04-05T20:56:27.802Z,101342.28
2023-04-05T20:59:30.489Z,101340.81
2023-04-05T21:02:33.610Z,101344.75
2023-04-05T21:05:36.377Z,101309.66
2023-04-05T21:08:42.251Z,101347.00
2023-04-05T21:11:44.943Z,101344.06
2023-04-05T21:14:48.537Z,101344.81
2023-04-05T21:17:50.876Z,101342.38
2023-04-05T21:20:53.987Z,101339.78
2023-04-05T21:23:56.744Z,101321.31
2023-04-05T21:26:59.117Z,101328.13
2023-04-05T21:30:01.566Z,101333.72
2023-04-05T21:33:04.086Z,101328.44
2023-04-05T21:36:06.717Z,101333.44
2023-04-05T21:39:09.205Z,101334.94
2023-04-05T21:42:13.024Z,101339.13
2023-04-05T21:45:15.564Z,101331.44
2023-04-05T21:48:18.273Z,101337.25
2023-04-05T21:51:20.842Z,101333.72
2023-04-05T21:54:23.646Z,101334.97
2023-04-05T21:57:26.030Z,101329.66
2023-04-05T22:00:28.420Z,101325.88
2023-04-05T22:03:31.016Z,101340.75
2023-04-05T22:06:33.498Z,101328.25
2023-04-05T22:09:36.384Z,101327.91
2023-04-05T22:12:39.075Z,101327.59
2023-04-05T22:15:41.524Z,101338.31
2023-04-05T22:18:44.282Z,101338.75
2023-04-05T22:21:46.882Z,101327.34
2023-04-05T22:24:49.277Z,101332.97
2023-04-05T22:27:51.685Z,101337.91
2023-04-05T22:30:54.016Z,101338.13
2023-04-05T22:33:56.514Z,101333.31
2023-04-05T22:36:59.047Z,101336.00
2023-04-05T22:40:01.959Z,101345.75
2023-04-05T22:43:04.320Z,101345.88
2023-04-05T22:46:06.628Z,101343.19
2023-04-05T22:49:09.498Z,101353.78
2023-04-05T22:52:12.014Z,101350.03
2023-04-05T22:55:14.353Z,101351.16
2023-04-05T22:58:17.405Z,101338.66
2023-04-05T23:01:19.700Z,101352.38
2023-04-05T23:04:22.215Z,101351.09
2023-04-05T23:07:24.953Z,101344.25
2023-04-05T23:10:27.370Z,101356.59
2023-04-05T23:13:29.733Z,101349.94
2023-04-05T23:16:32.376Z,101350.16
2023-04-05T23:19:34.889Z,101350.03
2023-04-05T23:22:37.294Z,101325.22
2023-04-05T23:25:39.628Z,101352.13
2023-04-05T23:28:41.993Z,101282.47
2023-04-05T23:31:44.413Z,101348.59
2023-04-05T23:34:47.380Z,101342.91
2023-04-05T23:37:50.082Z,101354.16
2023-04-05T23:40:52.445Z,101352.19
2023-04-05T23:43:54.805Z,101348.78
2023-04-05T23:46:57.620Z,101348.28
2023-04-05T23:50:00.036Z,101340.19
2023-04-05T23:53:03.190Z,101350.53
2023-04-05T23:56:06.314Z,101354.88
2023-04-05T23:59:08.996Z,101357.38
